createdAt,value
2017-10-17T00:01:26.019Z,8.70
2017-10-17T00:03:54.287Z,8.03
2017-10-17T00:06:21.769Z,9.23
2017-10-17T00:08:49.246Z,8.27
2017-10-17T00:11:17.497Z,7.90
2017-10-17T00:13:44.978Z,7.67
2017-10-17T00:16:13.232Z,8.60
2017-10-17T00:18:40.731Z,7.90
2017-10-17T00:21:08.220Z,8.40
2017-10-17T00:23:35.712Z,8.80
2017-10-17T00:26:03.205Z,6.70
2017-10-17T00:28:31.455Z,7.13
2017-10-17T00:30:59.704Z,8.73
2017-10-17T00:33:27.186Z,8.17
2017-10-17T00:35:59.221Z,7.40
2017-10-17T00:38:28.554Z,8.57
2017-10-17T00:40:56.038Z,9.00
2017-10-17T00:43:24.347Z,8.53
2017-10-17T00:45:51.829Z,7.67
2017-10-17T00:48:23.930Z,7.80
2017-10-17T00:50:52.191Z,8.23
2017-10-17T00:53:19.672Z,7.40
2017-10-17T00:55:47.924Z,7.83
2017-10-17T00:58:19.982Z,8.03
2017-10-17T01:00:47.472Z,8.00
2017-10-17T01:03:15.726Z,8.10
2017-10-17T01:05:43.210Z,7.43
2017-10-17T01:08:11.462Z,7.70
2017-10-17T01:10:38.954Z,7.40
2017-10-17T01:13:07.203Z,7.60
2017-10-17T01:15:34.689Z,7.23
2017-10-17T01:18:02.925Z,7.43
2017-10-17T01:20:30.397Z,7.93
2017-10-17T01:22:57.873Z,7.20
2017-10-17T01:25:26.161Z,7.80
2017-10-17T01:27:55.922Z,7.80
2017-10-17T01:30:23.408Z,8.30
2017-10-17T01:32:50.895Z,7.40
2017-10-17T01:35:18.374Z,6.93
2017-10-17T01:37:45.858Z,7.17
2017-10-17T01:40:27.959Z,6.77
2017-10-17T01:42:55.443Z,6.87
2017-10-17T01:45:23.711Z,6.10
2017-10-17T01:47:53.755Z,7.10
2017-10-17T01:50:22.004Z,7.03
2017-10-17T01:52:50.300Z,7.57
2017-10-17T01:55:17.786Z,7.40
2017-10-17T01:57:59.757Z,7.73
2017-10-17T02:00:27.998Z,6.77
2017-10-17T02:02:55.477Z,6.90
2017-10-17T02:05:22.957Z,8.07
2017-10-17T02:07:53.951Z,7.50
2017-10-17T02:10:21.443Z,6.70
2017-10-17T02:12:48.917Z,7.10
2017-10-17T02:15:17.165Z,6.47
2017-10-17T02:17:47.191Z,6.77
2017-10-17T02:20:14.666Z,7.10
2017-10-17T02:22:42.140Z,6.50
2017-10-17T02:25:14.698Z,7.13
2017-10-17T02:27:42.182Z,7.73
2017-10-17T02:30:10.426Z,7.90
2017-10-17T02:32:37.898Z,6.80
2017-10-17T02:35:18.637Z,6.23
2017-10-17T02:37:46.128Z,7.03
2017-10-17T02:40:14.376Z,7.20
2017-10-17T02:42:41.871Z,7.23
2017-10-17T02:45:10.112Z,5.83
2017-10-17T02:47:39.290Z,6.50
2017-10-17T02:50:08.144Z,6.60
2017-10-17T02:52:42.986Z,5.40
2017-10-17T02:55:25.356Z,6.90
2017-10-17T02:57:52.831Z,6.40
2017-10-17T03:00:21.079Z,7.20
2017-10-17T03:02:50.511Z,6.90
2017-10-17T03:05:18.762Z,6.90
2017-10-17T03:07:52.594Z,6.63
2017-10-17T03:10:20.843Z,6.50
2017-10-17T03:12:48.326Z,6.97
2017-10-17T03:15:27.666Z,6.40
2017-10-17T03:17:55.915Z,7.37
2017-10-17T03:20:33.306Z,7.10
2017-10-17T03:23:02.358Z,6.47
2017-10-17T03:25:29.835Z,6.57
2017-10-17T03:28:15.762Z,7.23
2017-10-17T03:30:47.168Z,7.07
2017-10-17T03:33:29.581Z,6.33
2017-10-17T03:35:57.073Z,7.53
2017-10-17T03:38:44.447Z,6.93
2017-10-17T03:44:28.094Z,7.90
2017-10-17T03:46:56.342Z,8.83
2017-10-17T03:49:28.539Z,8.30
2017-10-17T03:51:56.778Z,9.20
2017-10-17T03:54:37.737Z,6.73
2017-10-17T03:57:11.638Z,7.50
2017-10-17T03:59:45.074Z,7.20
2017-10-17T04:02:12.564Z,6.80
2017-10-17T04:04:47.409Z,7.60
2017-10-17T04:10:36.947Z,7.13
2017-10-17T04:13:12.358Z,7.50
2017-10-17T04:15:39.853Z,7.53
2017-10-17T04:18:28.789Z,7.80
2017-10-17T04:20:59.279Z,7.00
2017-10-17T04:23:34.026Z,7.47
2017-10-17T04:26:07.123Z,7.60
2017-10-17T04:28:39.574Z,7.10
2017-10-17T04:31:23.337Z,8.10
2017-10-17T04:34:11.195Z,6.90
2017-10-17T04:39:32.074Z,6.70
2017-10-17T04:42:07.930Z,7.37
2017-10-17T04:44:48.126Z,8.10
2017-10-17T04:47:18.066Z,7.03
2017-10-17T04:53:24.243Z,7.13
2017-10-17T04:55:51.723Z,6.83
2017-10-17T04:58:24.188Z,6.27
2017-10-17T05:00:51.697Z,7.00
2017-10-17T05:03:24.722Z,6.50
2017-10-17T05:05:54.995Z,6.70
2017-10-17T05:08:29.863Z,6.23
2017-10-17T05:11:00.760Z,6.30
2017-10-17T05:13:34.872Z,6.63
2017-10-17T05:16:09.212Z,5.83
2017-10-17T05:21:31.646Z,7.60
2017-10-17T05:24:03.869Z,8.00
2017-10-17T05:26:31.363Z,6.60
2017-10-17T05:29:17.234Z,7.60
2017-10-17T05:31:48.299Z,6.90
2017-10-17T05:34:27.481Z,8.10
2017-10-17T05:36:59.629Z,8.10
2017-10-17T05:39:27.874Z,7.20
2017-10-17T05:41:55.368Z,8.23
2017-10-17T05:44:31.108Z,9.20
2017-10-17T05:47:01.276Z,7.80
2017-10-17T05:49:35.370Z,8.17
2017-10-17T05:52:02.855Z,8.90
2017-10-17T05:54:30.328Z,7.40
2017-10-17T05:56:57.814Z,8.87
2017-10-17T05:59:25.300Z,6.77
2017-10-17T06:01:53.550Z,8.17
2017-10-17T06:04:21.035Z,7.90
2017-10-17T06:06:49.292Z,8.40
2017-10-17T06:09:16.769Z,8.37
2017-10-17T06:11:45.072Z,7.40
2017-10-17T06:14:12.554Z,7.60
2017-10-17T06:16:40.043Z,8.50
2017-10-17T06:19:07.519Z,8.13
2017-10-17T06:21:35.766Z,8.40
2017-10-17T06:24:03.254Z,8.17
2017-10-17T06:26:31.514Z,6.90
2017-10-17T06:28:59.007Z,8.47
2017-10-17T06:31:26.504Z,8.23
2017-10-17T06:33:54.008Z,8.23
2017-10-17T06:36:22.280Z,6.90
2017-10-17T06:38:49.757Z,8.80
2017-10-17T06:41:17.247Z,9.73
2017-10-17T06:43:44.730Z,8.10
2017-10-17T06:46:12.213Z,10.03
2017-10-17T06:48:40.461Z,7.50
2017-10-17T06:51:07.948Z,7.93
2017-10-17T06:53:36.194Z,7.57
2017-10-17T06:56:03.675Z,6.67
2017-10-17T06:58:31.168Z,7.30
2017-10-17T07:00:58.642Z,7.73
2017-10-17T07:03:26.120Z,7.43
2017-10-17T07:05:53.614Z,8.03
2017-10-17T07:08:21.102Z,8.00
2017-10-17T07:10:48.580Z,7.77
2017-10-17T07:13:16.088Z,8.17
2017-10-17T07:15:43.575Z,8.70
2017-10-17T07:18:11.072Z,7.17
2017-10-17T07:20:38.563Z,8.63
2017-10-17T07:23:06.047Z,8.37
2017-10-17T07:25:33.534Z,8.90
2017-10-17T07:28:01.020Z,8.93
2017-10-17T07:30:28.508Z,8.20
2017-10-17T07:32:56.763Z,8.70
2017-10-17T07:35:24.250Z,9.80
2017-10-17T07:37:52.506Z,9.43
2017-10-17T07:40:20.762Z,8.67
2017-10-17T07:42:48.256Z,10.00
2017-10-17T07:45:16.511Z,9.90
2017-10-17T07:47:44.006Z,9.07
2017-10-17T07:50:12.254Z,9.73
2017-10-17T07:52:39.752Z,9.27
2017-10-17T07:55:07.235Z,9.00
2017-10-17T07:57:34.732Z,8.70
2017-10-17T08:00:02.223Z,10.00
2017-10-17T08:02:29.719Z,10.13
2017-10-17T08:04:57.199Z,9.90
2017-10-17T08:07:24.701Z,9.87
2017-10-17T08:09:52.946Z,9.10
2017-10-17T08:12:20.434Z,9.80
2017-10-17T08:14:48.690Z,37.17
2017-10-17T08:17:16.178Z,135.33
2017-10-17T08:19:43.667Z,18.60
2017-10-17T08:22:11.160Z,16.20
2017-10-17T08:24:38.660Z,15.77
2017-10-17T08:27:06.155Z,22.73
2017-10-17T08:29:33.647Z,20.90
2017-10-17T08:32:01.132Z,14.30
2017-10-17T08:34:28.623Z,23.83
2017-10-17T08:36:56.112Z,28.53
2017-10-17T08:39:23.615Z,11.63
2017-10-17T08:41:51.097Z,11.60
2017-10-17T08:44:18.590Z,17.87
2017-10-17T08:46:46.090Z,12.67
2017-10-17T08:49:13.574Z,15.73
2017-10-17T08:51:41.064Z,15.87
2017-10-17T08:54:08.588Z,13.07
2017-10-17T08:56:36.060Z,12.53
2017-10-17T08:59:03.539Z,13.57
2017-10-17T09:01:31.827Z,19.30
2017-10-17T09:03:59.314Z,25.93
2017-10-17T09:06:27.572Z,18.33
2017-10-17T09:08:55.851Z,22.20
2017-10-17T09:11:24.107Z,19.90
2017-10-17T09:13:51.602Z,16.80
2017-10-17T09:16:19.858Z,17.63
2017-10-17T09:18:47.347Z,18.60
2017-10-17T09:21:14.830Z,19.07
2017-10-17T09:23:42.319Z,23.00
2017-10-17T09:26:09.801Z,25.17
2017-10-17T09:28:38.055Z,26.67
2017-10-17T09:31:05.540Z,30.10
2017-10-17T09:33:33.798Z,32.47
2017-10-17T09:36:01.294Z,34.37
2017-10-17T09:38:28.829Z,29.80
2017-10-17T09:40:57.081Z,34.70
2017-10-17T09:43:24.571Z,34.30
2017-10-17T09:45:52.831Z,31.97
2017-10-17T09:48:20.322Z,29.60
2017-10-17T09:50:47.812Z,29.13
2017-10-17T09:53:15.295Z,29.37
2017-10-17T09:55:42.788Z,28.90
2017-10-17T09:58:11.042Z,31.37
2017-10-17T10:00:38.541Z,32.23
2017-10-17T10:03:06.031Z,34.07
2017-10-17T10:05:33.513Z,34.50
2017-10-17T10:08:01.013Z,35.00
2017-10-17T10:10:28.533Z,27.53
2017-10-17T10:12:56.031Z,33.20
2017-10-17T10:15:23.518Z,32.97
2017-10-17T10:17:51.001Z,35.57
2017-10-17T10:20:18.503Z,34.03
2017-10-17T10:22:46.774Z,29.47
2017-10-17T10:25:15.026Z,35.43
2017-10-17T10:27:42.519Z,34.73
2017-10-17T10:30:10.774Z,27.37
2017-10-17T10:32:38.249Z,34.70
2017-10-17T10:35:06.521Z,26.77
2017-10-17T10:37:34.797Z,37.87
2017-10-17T10:40:03.051Z,37.80
2017-10-17T10:42:30.549Z,34.90
2017-10-17T10:44:58.043Z,35.73
2017-10-17T10:47:25.525Z,28.60
2017-10-17T10:49:53.013Z,37.17
2017-10-17T10:52:21.261Z,41.27
2017-10-17T10:54:48.752Z,40.80
2017-10-17T10:57:17.036Z,39.20
2017-10-17T10:59:45.299Z,37.57
2017-10-17T11:02:13.566Z,27.13
2017-10-17T11:04:41.056Z,30.40
2017-10-17T11:07:08.542Z,43.37
2017-10-17T11:09:36.054Z,44.80
2017-10-17T11:12:04.306Z,31.13
2017-10-17T11:14:31.807Z,43.87
2017-10-17T11:16:59.292Z,29.57
2017-10-17T11:19:26.794Z,32.47
2017-10-17T11:21:54.286Z,42.80
2017-10-17T11:24:21.763Z,27.73
2017-10-17T11:26:49.250Z,44.43
2017-10-17T11:29:16.747Z,28.83
2017-10-17T11:31:45.001Z,33.60
2017-10-17T11:34:12.486Z,30.80
2017-10-17T11:36:40.758Z,32.83
2017-10-17T11:39:09.017Z,50.30
2017-10-17T11:41:48.367Z,37.03
2017-10-17T11:44:16.630Z,49.57
2017-10-17T11:46:44.118Z,43.00
2017-10-17T11:49:12.378Z,51.43
2017-10-17T11:51:40.663Z,44.13
2017-10-17T11:54:08.911Z,37.70
2017-10-17T11:56:36.401Z,48.97
2017-10-17T11:59:04.655Z,32.10
2017-10-17T12:01:32.557Z,33.53
2017-10-17T12:04:01.337Z,34.53
2017-10-17T12:06:29.792Z,34.63
2017-10-17T12:08:57.746Z,33.00
2017-10-17T12:11:25.662Z,34.60
2017-10-17T12:13:55.139Z,42.53
2017-10-17T12:16:23.154Z,34.77
2017-10-17T12:18:50.635Z,34.13
2017-10-17T12:21:18.168Z,35.83
2017-10-17T12:23:45.658Z,35.33
2017-10-17T12:26:13.163Z,43.17
2017-10-17T12:28:41.482Z,39.30
2017-10-17T12:31:08.970Z,44.87
2017-10-17T12:33:36.525Z,43.63
2017-10-17T12:36:04.205Z,40.53
2017-10-17T12:38:31.680Z,37.53
2017-10-17T12:40:59.941Z,33.50
2017-10-17T12:43:27.428Z,44.00
2017-10-17T12:45:55.695Z,45.70
2017-10-17T12:48:23.951Z,41.27
2017-10-17T12:50:51.439Z,45.83
2017-10-17T12:53:19.709Z,37.93
2017-10-17T12:55:47.958Z,38.80
2017-10-17T12:58:15.442Z,39.90
2017-10-17T13:00:43.717Z,33.37
2017-10-17T13:03:12.083Z,35.83
2017-10-17T13:05:39.623Z,39.10
2017-10-17T13:08:07.097Z,36.93
2017-10-17T13:10:34.582Z,35.00
2017-10-17T13:13:02.874Z,41.60
2017-10-17T13:15:31.129Z,35.53
2017-10-17T13:17:58.610Z,39.20
2017-10-17T13:20:26.895Z,34.70
2017-10-17T13:22:54.408Z,40.27
2017-10-17T13:25:21.928Z,43.83
2017-10-17T13:27:49.461Z,37.70
2017-10-17T13:30:17.720Z,40.70
2017-10-17T13:32:46.077Z,37.90
2017-10-17T13:35:13.565Z,39.10
2017-10-17T13:37:41.862Z,35.27
2017-10-17T13:40:09.376Z,36.73
2017-10-17T13:42:36.876Z,41.07
2017-10-17T13:45:05.139Z,36.30
2017-10-17T13:47:33.740Z,35.20
2017-10-17T13:50:02.062Z,36.67
2017-10-17T13:52:29.649Z,34.17
2017-10-17T13:54:57.221Z,34.50
2017-10-17T13:57:24.722Z,37.67
2017-10-17T13:59:52.271Z,34.50
2017-10-17T14:02:19.775Z,44.20
2017-10-17T14:04:47.264Z,35.93
2017-10-17T14:07:15.521Z,41.40
2017-10-17T14:09:43.016Z,45.67
2017-10-17T14:12:10.542Z,42.33
2017-10-17T14:14:38.323Z,42.00
2017-10-17T14:17:06.571Z,36.63
2017-10-17T14:19:34.063Z,34.83
2017-10-17T14:22:02.314Z,34.30
2017-10-17T14:24:29.804Z,35.67
2017-10-17T14:26:58.055Z,36.00
2017-10-17T14:29:25.544Z,36.53
2017-10-17T14:31:53.785Z,40.43
2017-10-17T14:34:21.261Z,36.47
2017-10-17T14:36:48.749Z,39.23
2017-10-17T14:39:16.243Z,32.90
2017-10-17T14:41:43.733Z,40.07
2017-10-17T14:44:11.231Z,39.00
2017-10-17T14:46:38.727Z,41.37
2017-10-17T14:49:06.982Z,40.70
2017-10-17T14:51:34.498Z,44.17
2017-10-17T14:54:02.023Z,40.77
2017-10-17T14:56:29.518Z,34.03
2017-10-17T14:58:57.774Z,43.60
2017-10-17T15:01:25.269Z,39.57
2017-10-17T15:03:53.522Z,36.73
2017-10-17T15:06:21.019Z,39.17
2017-10-17T15:08:48.506Z,30.30
2017-10-17T15:11:15.987Z,35.27
2017-10-17T15:13:43.471Z,34.93
2017-10-17T15:16:11.730Z,34.20
2017-10-17T15:18:39.224Z,36.67
2017-10-17T15:21:06.834Z,49.33
2017-10-17T15:23:34.355Z,41.60
2017-10-17T15:26:01.859Z,37.57
2017-10-17T15:28:29.333Z,40.63
2017-10-17T15:30:56.818Z,41.37
2017-10-17T15:33:25.077Z,47.70
2017-10-17T15:35:53.331Z,40.60
2017-10-17T15:38:20.808Z,41.73
2017-10-17T15:40:48.375Z,33.40
2017-10-17T15:43:16.621Z,38.33
2017-10-17T15:45:44.143Z,44.10
2017-10-17T15:48:11.662Z,43.27
2017-10-17T15:50:39.952Z,46.87
2017-10-17T15:53:08.198Z,44.87
2017-10-17T15:55:35.729Z,50.30
2017-10-17T15:58:03.240Z,38.10
2017-10-17T16:00:30.724Z,36.97
2017-10-17T16:02:58.214Z,37.00
2017-10-17T16:05:25.806Z,46.10
2017-10-17T16:07:53.309Z,505.97
2017-10-17T16:10:20.803Z,529.47
2017-10-17T16:12:49.079Z,104.03
2017-10-17T16:15:16.572Z,380.70
2017-10-17T16:17:44.856Z,376.87
2017-10-17T16:20:13.112Z,207.77
2017-10-17T16:22:40.607Z,732.00
2017-10-17T16:25:08.871Z,78.83
2017-10-17T16:27:37.146Z,233.17
2017-10-17T16:30:05.404Z,999.90
2017-10-17T16:32:32.914Z,830.67
2017-10-17T16:35:00.421Z,573.90
2017-10-17T16:37:27.946Z,106.70
2017-10-17T16:39:55.430Z,109.00
2017-10-17T16:42:22.915Z,49.43
2017-10-17T16:44:50.403Z,65.83
2017-10-17T16:47:17.902Z,47.90
2017-10-17T16:49:45.389Z,49.53
2017-10-17T16:52:13.662Z,48.40
2017-10-17T16:54:41.145Z,48.30
2017-10-17T16:57:09.403Z,54.40
2017-10-17T16:59:36.885Z,47.60
2017-10-17T17:02:05.153Z,48.80
2017-10-17T17:04:33.416Z,47.20
2017-10-17T17:07:00.907Z,51.30
2017-10-17T17:09:28.390Z,47.43
2017-10-17T17:11:55.889Z,43.10
2017-10-17T17:14:23.371Z,47.13
2017-10-17T17:16:51.633Z,45.40
2017-10-17T17:19:19.882Z,45.37
2017-10-17T17:21:47.385Z,46.03
2017-10-17T17:24:15.635Z,48.23
2017-10-17T17:26:43.137Z,46.37
2017-10-17T17:29:10.621Z,44.57
2017-10-17T17:31:38.107Z,136.53
2017-10-17T17:34:05.609Z,173.20
2017-10-17T17:36:33.095Z,80.07
2017-10-17T17:39:00.582Z,50.10
2017-10-17T17:41:28.078Z,213.60
2017-10-17T17:43:56.330Z,64.20
2017-10-17T17:46:25.345Z,56.63
2017-10-17T17:48:53.599Z,145.57
2017-10-17T17:51:21.124Z,52.70
2017-10-17T17:53:48.603Z,55.37
2017-10-17T17:56:16.086Z,55.63
2017-10-17T17:58:45.023Z,55.90
2017-10-17T18:01:13.347Z,53.00
2017-10-17T18:03:42.560Z,65.23
2017-10-17T18:06:10.880Z,324.03
2017-10-17T18:08:38.386Z,84.73
2017-10-17T18:11:05.897Z,50.87
2017-10-17T18:13:33.382Z,51.77
2017-10-17T18:16:00.881Z,56.20
2017-10-17T18:18:29.144Z,54.50
2017-10-17T18:20:57.406Z,51.80
2017-10-17T18:23:24.909Z,50.97
2017-10-17T18:25:52.403Z,51.10
2017-10-17T18:28:19.891Z,53.20
2017-10-17T18:30:47.388Z,49.80
2017-10-17T18:33:14.880Z,51.70
2017-10-17T18:35:42.382Z,51.73
2017-10-17T18:38:10.650Z,49.93
2017-10-17T18:40:38.145Z,48.40
2017-10-17T18:43:05.646Z,48.50
2017-10-17T18:45:33.157Z,43.13
2017-10-17T18:48:01.826Z,44.50
2017-10-17T18:50:30.574Z,185.30
2017-10-17T18:52:58.237Z,49.63
2017-10-17T18:55:26.369Z,67.17
2017-10-17T18:57:55.009Z,56.83
2017-10-17T19:00:22.963Z,60.27
2017-10-17T19:02:51.039Z,50.87
2017-10-17T19:05:18.796Z,50.17
2017-10-17T19:07:46.644Z,44.60
2017-10-17T19:10:14.451Z,47.80
2017-10-17T19:12:42.185Z,45.37
2017-10-17T19:15:10.102Z,48.20
2017-10-17T19:17:41.437Z,48.87
2017-10-17T19:20:08.986Z,52.13
2017-10-17T19:22:37.721Z,52.43
2017-10-17T19:25:06.504Z,48.27
2017-10-17T19:27:35.922Z,47.00
2017-10-17T19:30:03.803Z,52.20
2017-10-17T19:32:32.515Z,46.20
2017-10-17T19:35:00.377Z,46.00
2017-10-17T19:37:29.057Z,44.80
2017-10-17T19:39:56.810Z,46.73
2017-10-17T19:42:24.536Z,47.20
2017-10-17T19:44:52.403Z,47.40
2017-10-17T19:47:20.037Z,43.73
2017-10-17T19:49:47.800Z,44.93
2017-10-17T19:52:15.335Z,89.70
2017-10-17T19:54:43.175Z,43.20
2017-10-17T19:57:11.627Z,44.70
2017-10-17T19:59:39.224Z,53.43
2017-10-17T20:02:07.751Z,44.60
2017-10-17T20:04:35.398Z,55.90
2017-10-17T20:07:03.327Z,45.17
2017-10-17T20:09:32.066Z,46.17
2017-10-17T20:11:59.939Z,44.67
2017-10-17T20:14:27.719Z,43.83
2017-10-17T20:16:56.179Z,42.77
2017-10-17T20:19:24.378Z,47.30
2017-10-17T20:21:52.177Z,46.23
2017-10-17T20:24:20.667Z,53.67
2017-10-17T20:26:48.958Z,41.77
2017-10-17T20:29:16.569Z,48.00
2017-10-17T20:31:44.781Z,47.67
2017-10-17T20:34:13.807Z,44.90
2017-10-17T20:36:41.471Z,559.50
2017-10-17T20:39:09.474Z,349.43
2017-10-17T20:41:37.125Z,136.00
2017-10-17T20:44:04.910Z,44.57
2017-10-17T20:46:32.817Z,42.60
2017-10-17T20:49:01.754Z,48.50
2017-10-17T20:51:29.594Z,49.23
2017-10-17T20:53:57.537Z,46.07
2017-10-17T20:56:25.983Z,504.23
2017-10-17T20:58:53.918Z,102.50
2017-10-17T21:01:22.553Z,102.70
2017-10-17T21:03:50.101Z,37.60
2017-10-17T21:06:17.862Z,45.60
2017-10-17T21:08:45.494Z,38.40
2017-10-17T21:11:13.315Z,101.10
2017-10-17T21:13:42.048Z,38.63
2017-10-17T21:16:10.098Z,49.50
2017-10-17T21:18:38.292Z,61.83
2017-10-17T21:21:05.876Z,52.67
2017-10-17T21:23:33.462Z,57.10
2017-10-17T21:26:01.498Z,38.50
2017-10-17T21:28:29.134Z,41.33
2017-10-17T21:30:56.830Z,75.47
2017-10-17T21:33:24.580Z,51.83
2017-10-17T21:35:52.077Z,37.60
2017-10-17T21:38:19.573Z,35.13
2017-10-17T21:40:47.826Z,39.37
2017-10-17T21:43:15.302Z,34.60
2017-10-17T21:45:43.542Z,39.63
2017-10-17T21:50:53.175Z,49.97
2017-10-17T21:53:20.676Z,34.40
2017-10-17T21:55:48.166Z,39.30
2017-10-17T21:58:16.435Z,38.33
2017-10-17T22:00:56.694Z,50.40
2017-10-17T22:03:24.938Z,42.07
2017-10-17T22:05:52.429Z,31.53
2017-10-17T22:08:20.692Z,42.07
2017-10-17T22:10:48.177Z,33.10
2017-10-17T22:13:15.675Z,36.70
2017-10-17T22:15:43.156Z,29.00
2017-10-17T22:18:10.651Z,32.10
2017-10-17T22:20:38.898Z,31.10
2017-10-17T22:23:06.387Z,30.60
2017-10-17T22:25:34.637Z,28.60
2017-10-17T22:28:02.118Z,30.03
2017-10-17T22:30:30.396Z,29.70
2017-10-17T22:32:58.638Z,27.97
2017-10-17T22:35:26.113Z,28.50
2017-10-17T22:37:53.595Z,31.37
2017-10-17T22:40:21.843Z,28.27
2017-10-17T22:42:49.344Z,30.00
2017-10-17T22:45:16.827Z,27.60
2017-10-17T22:47:44.315Z,36.47
2017-10-17T22:50:11.995Z,40.93
2017-10-17T22:52:40.251Z,65.47
2017-10-17T22:55:07.733Z,62.40
2017-10-17T22:57:36.023Z,45.60
2017-10-17T23:00:04.274Z,27.20
2017-10-17T23:02:31.763Z,32.33
2017-10-17T23:05:00.015Z,28.50
2017-10-17T23:07:27.502Z,30.00
2017-10-17T23:09:54.993Z,26.07
2017-10-17T23:12:22.481Z,25.73
2017-10-17T23:14:49.959Z,25.10
2017-10-17T23:17:30.256Z,25.03
2017-10-17T23:20:11.272Z,25.67
2017-10-17T23:22:40.182Z,26.17
2017-10-17T23:25:07.683Z,24.27
2017-10-17T23:27:35.175Z,23.83
2017-10-17T23:30:03.041Z,26.23
2017-10-17T23:32:30.909Z,24.37
2017-10-17T23:34:58.385Z,25.83
2017-10-17T23:37:25.884Z,23.27
2017-10-17T23:39:53.387Z,24.47
2017-10-17T23:42:20.875Z,25.80
2017-10-17T23:44:50.023Z,24.77
2017-10-17T23:47:17.510Z,24.33
2017-10-17T23:49:48.132Z,26.30
2017-10-17T23:52:15.868Z,25.43
2017-10-17T23:54:43.402Z,23.60
2017-10-17T23:57:11.666Z,25.57
2017-10-17T23:59:39.909Z,23.53
